Time;durP1;ratioP1;P1;durP2;ratioP2;P2;SDS_P1;SDS_P2;PMS_P1;PMS_P2;Temp;Humidity;BMP_temperature;BMP_pressure;BME280_temperature;BME280_humidity;BME280_pressure;Samples;Min_cycle;Max_cycle;Signal;HPM_P1;HPM_P2
2021/01/23 00:02:24;;;;;;;12.33;11.13;;;8.30;98.40;;;;;;5110122;27;20246;-84
2021/01/23 00:04:50;;;;;;;16.83;12.30;;;8.20;98.70;;;;;;5110867;28;20416;-84
2021/01/23 00:07:16;;;;;;;18.73;13.20;;;8.30;98.50;;;;;;5108879;28;20266;-84
2021/01/23 00:09:41;;;;;;;16.33;13.67;;;8.30;98.50;;;;;;5110409;28;20179;-85
2021/01/23 00:12:07;;;;;;;15.53;12.40;;;8.30;98.60;;;;;;5110785;28;20579;-84
2021/01/23 00:14:33;;;;;;;13.57;12.10;;;8.40;98.40;;;;;;5111424;28;20182;-83
2021/01/23 00:16:59;;;;;;;15.25;10.93;;;8.50;98.30;;;;;;5108988;28;20420;-84
2021/01/23 00:19:25;;;;;;;14.53;11.90;;;8.40;98.30;;;;;;5109932;28;20199;-84
2021/01/23 00:21:51;;;;;;;16.27;11.23;;;8.40;98.50;;;;;;5109015;28;20504;-84
2021/01/23 00:24:17;;;;;;;15.07;11.15;;;8.40;98.40;;;;;;5108995;28;20722;-84
2021/01/23 00:26:44;;;;;;;14.53;10.10;;;8.40;98.60;;;;;;5109741;28;20172;-84
2021/01/23 00:29:13;;;;;;;14.00;11.40;;;8.40;98.70;;;;;;5110452;28;20499;-85
2021/01/23 00:31:40;;;;;;;10.60;9.52;;;8.40;98.80;;;;;;5108996;28;20188;-84
2021/01/23 00:34:06;;;;;;;12.60;10.05;;;8.70;98.20;;;;;;5109412;28;20187;-84
2021/01/23 00:36:31;;;;;;;14.80;12.10;;;8.60;98.30;;;;;;5110601;28;20768;-83
2021/01/23 00:38:58;;;;;;;11.33;10.20;;;8.50;98.60;;;;;;5109894;28;20608;-84
2021/01/23 00:41:24;;;;;;;12.18;10.25;;;8.60;98.50;;;;;;5110857;28;20257;-84
2021/01/23 00:43:50;;;;;;;11.77;10.57;;;8.60;98.40;;;;;;5111010;28;20172;-84
2021/01/23 00:46:15;;;;;;;13.00;11.33;;;8.60;98.40;;;;;;5109727;28;20191;-84
2021/01/23 00:48:41;;;;;;;12.40;11.10;;;8.70;98.30;;;;;;5109925;28;20653;-83
2021/01/23 00:51:07;;;;;;;12.53;10.20;;;8.60;98.40;;;;;;5110012;28;20217;-84
2021/01/23 00:53:32;;;;;;;12.13;9.77;;;8.70;98.30;;;;;;5108608;28;20276;-83
2021/01/23 00:55:58;;;;;;;16.13;11.03;;;8.80;98.10;;;;;;5108491;28;20306;-84
2021/01/23 00:58:23;;;;;;;12.93;11.63;;;8.80;98.00;;;;;;5109496;28;20623;-84
2021/01/23 01:00:49;;;;;;;15.00;11.00;;;8.80;98.00;;;;;;5110056;28;20282;-84
2021/01/23 01:03:15;;;;;;;11.63;10.30;;;8.80;98.00;;;;;;5110098;28;20283;-84
2021/01/23 01:05:40;;;;;;;14.50;10.60;;;8.70;98.10;;;;;;5110416;28;20175;-85
2021/01/23 01:08:06;;;;;;;11.97;10.80;;;8.70;98.20;;;;;;5109695;28;20175;-84
2021/01/23 01:10:32;;;;;;;12.30;10.73;;;8.80;98.00;;;;;;5109266;28;20176;-84
2021/01/23 01:12:58;;;;;;;13.33;11.23;;;8.80;97.80;;;;;;5109694;28;20172;-84
2021/01/23 01:15:24;;;;;;;11.93;10.73;;;8.80;97.90;;;;;;5110665;28;20183;-84
2021/01/23 01:17:49;;;;;;;11.33;10.20;;;8.70;98.10;;;;;;5109386;28;20758;-84
2021/01/23 01:20:15;;;;;;;14.10;10.50;;;8.80;97.90;;;;;;5107823;28;20222;-83
2021/01/23 01:22:40;;;;;;;13.50;11.03;;;8.80;97.80;;;;;;5107935;28;20182;-84
2021/01/23 01:25:07;;;;;;;12.77;10.50;;;8.80;97.90;;;;;;5110197;28;20259;-84
2021/01/23 01:27:32;;;;;;;13.23;10.20;;;8.90;97.70;;;;;;5108836;28;20179;-84
2021/01/23 01:29:58;;;;;;;14.07;10.27;;;8.80;98.10;;;;;;5108307;28;20196;-84
2021/01/23 01:32:24;;;;;;;13.60;11.30;;;8.80;98.10;;;;;;5108521;28;20194;-84
2021/01/23 01:34:49;;;;;;;12.77;10.50;;;8.80;98.00;;;;;;5109982;28;20184;-84
2021/01/23 01:37:15;;;;;;;11.87;10.27;;;9.00;97.40;;;;;;5107738;28;20495;-84
2021/01/23 01:39:40;;;;;;;12.93;11.53;;;9.00;97.60;;;;;;5095625;28;20208;-84
2021/01/23 01:42:06;;;;;;;11.43;10.00;;;9.00;97.60;;;;;;5088006;28;20186;-84
2021/01/23 01:44:32;;;;;;;14.20;12.00;;;8.90;97.60;;;;;;5086404;28;20188;-84
2021/01/23 01:46:59;;;;;;;12.63;10.90;;;9.10;97.20;;;;;;5089484;28;20176;-85
2021/01/23 01:49:25;;;;;;;12.88;10.75;;;8.90;97.70;;;;;;5088565;28;20470;-83
2021/01/23 01:51:55;;;;;;;14.52;11.20;;;8.90;97.70;;;;;;5088670;28;20574;-84
2021/01/23 01:54:23;;;;;;;13.07;10.98;;;8.70;98.00;;;;;;5086954;28;20245;-83
2021/01/23 01:56:49;;;;;;;13.05;11.75;;;9.00;97.50;;;;;;5087472;28;20228;-85
2021/01/23 01:59:15;;;;;;;12.07;10.40;;;8.90;97.60;;;;;;5089468;28;20721;-84
2021/01/23 02:01:40;;;;;;;16.80;11.63;;;9.00;97.30;;;;;;5088234;28;20168;-84
2021/01/23 02:04:19;;;;;;;13.00;10.70;;;9.10;97.30;;;;;;5088051;28;20539;-83
2021/01/23 02:07:08;;;;;;;12.48;11.15;;;8.90;97.50;;;;;;5087901;28;20537;-84
2021/01/23 02:09:35;;;;;;;14.27;11.27;;;8.90;97.60;;;;;;5086770;28;20189;-84
2021/01/23 02:12:25;;;;;;;13.45;11.20;;;9.00;97.30;;;;;;5088872;28;20183;-83
2021/01/23 02:15:02;;;;;;;11.93;10.38;;;9.00;97.20;;;;;;5088103;28;20186;-84
2021/01/23 02:17:43;;;;;;;12.20;10.95;;;8.80;97.70;;;;;;5088727;28;20608;-84
2021/01/23 02:20:14;;;;;;;14.15;10.65;;;8.90;97.40;;;;;;5088590;28;20252;-84
2021/01/23 02:22:49;;;;;;;12.55;10.00;;;8.80;97.60;;;;;;5089168;28;20161;-84
2021/01/23 02:25:18;;;;;;;12.40;10.35;;;8.90;97.60;;;;;;5088069;28;20263;-84
2021/01/23 02:28:27;;;;;;;12.80;10.88;;;8.90;97.50;;;;;;5086510;28;20187;-84
2021/01/23 02:31:12;;;;;;;11.23;10.02;;;9.00;97.30;;;;;;5029960;28;20240;-84
2021/01/23 02:33:39;;;;;;;13.60;10.77;;;8.90;97.30;;;;;;5044016;28;20275;-84
2021/01/23 02:36:08;;;;;;;12.98;11.60;;;8.90;97.20;;;;;;5087322;28;20195;-84
2021/01/23 02:38:34;;;;;;;11.95;10.70;;;8.80;97.60;;;;;;5104288;28;20192;-84
2021/01/23 02:41:04;;;;;;;11.88;10.55;;;8.80;97.50;;;;;;5088549;28;20211;-84
2021/01/23 02:43:32;;;;;;;11.68;10.48;;;8.90;97.50;;;;;;5089042;28;20172;-84
2021/01/23 02:45:59;;;;;;;13.13;10.50;;;8.90;97.40;;;;;;5088793;28;20177;-84
2021/01/23 02:48:25;;;;;;;11.23;9.77;;;8.90;97.30;;;;;;5087703;28;20184;-84
2021/01/23 02:50:51;;;;;;;12.38;10.93;;;8.90;97.20;;;;;;5090252;28;20187;-84
2021/01/23 02:53:21;;;;;;;12.03;9.93;;;9.00;97.00;;;;;;5092399;28;20176;-84
2021/01/23 02:55:55;;;;;;;12.60;11.30;;;8.90;97.30;;;;;;5092630;28;20212;-82
2021/01/23 02:58:25;;;;;;;14.52;10.23;;;8.80;97.20;;;;;;5092148;28;20263;-84
2021/01/23 03:00:52;;;;;;;16.95;10.25;;;8.70;97.60;;;;;;5090633;28;20337;-85
2021/01/23 03:03:20;;;;;;;13.55;10.05;;;8.70;97.50;;;;;;5091614;28;20229;-84
2021/01/23 03:05:48;;;;;;;13.18;10.50;;;8.70;97.60;;;;;;5090102;28;20192;-84
2021/01/23 03:08:15;;;;;;;13.23;9.93;;;8.70;97.50;;;;;;5092061;28;20218;-84
2021/01/23 03:10:43;;;;;;;11.93;10.13;;;8.80;97.20;;;;;;5089237;28;20180;-84
2021/01/23 03:13:10;;;;;;;12.15;10.85;;;8.90;97.20;;;;;;5091519;28;20172;-84
2021/01/23 03:15:37;;;;;;;12.85;10.15;;;8.80;97.20;;;;;;5090073;28;20220;-84
2021/01/23 03:18:03;;;;;;;19.73;10.48;;;8.80;97.20;;;;;;5090093;28;20533;-83
2021/01/23 03:20:29;;;;;;;10.75;9.63;;;8.80;97.20;;;;;;5092219;28;20233;-84
2021/01/23 03:22:56;;;;;;;11.50;9.73;;;8.70;97.30;;;;;;5091453;28;20180;-84
2021/01/23 03:25:23;;;;;;;12.52;10.80;;;8.90;97.20;;;;;;5092408;28;20335;-84
2021/01/23 03:27:49;;;;;;;11.55;10.10;;;8.90;96.90;;;;;;5091988;28;20651;-85
2021/01/23 03:30:17;;;;;;;13.57;9.20;;;8.90;96.80;;;;;;5091051;28;20188;-84
2021/01/23 03:32:43;;;;;;;12.48;11.00;;;8.90;96.70;;;;;;5093222;28;20408;-84
2021/01/23 03:35:10;;;;;;;18.17;10.90;;;9.10;96.30;;;;;;5099133;28;20184;-84
2021/01/23 03:37:35;;;;;;;11.45;9.27;;;9.00;96.60;;;;;;5111474;28;20195;-84
2021/01/23 03:40:02;;;;;;;13.20;9.70;;;8.90;96.70;;;;;;5094769;28;20200;-84
2021/01/23 03:42:28;;;;;;;16.27;9.50;;;8.90;96.70;;;;;;5090410;28;20174;-84
2021/01/23 03:44:54;;;;;;;12.47;10.07;;;8.90;96.70;;;;;;5090952;28;20191;-83
2021/01/23 03:47:19;;;;;;;15.00;9.97;;;8.90;96.90;;;;;;5089256;28;20572;-84
2021/01/23 03:49:45;;;;;;;10.60;9.40;;;8.90;96.80;;;;;;5091643;28;20190;-84
2021/01/23 03:52:12;;;;;;;13.10;10.30;;;8.70;97.20;;;;;;5091926;28;20294;-84
2021/01/23 03:54:41;;;;;;;18.25;10.50;;;8.80;96.90;;;;;;5088605;28;20184;-84
2021/01/23 03:57:08;;;;;;;12.48;10.48;;;8.90;96.80;;;;;;5089690;28;20232;-84
2021/01/23 03:59:34;;;;;;;12.50;9.88;;;8.90;96.70;;;;;;5090849;28;20245;-84
2021/01/23 04:02:00;;;;;;;13.63;10.07;;;8.90;96.70;;;;;;5089862;28;20265;-85
2021/01/23 04:04:26;;;;;;;14.87;12.50;;;8.90;96.60;;;;;;5091084;28;20441;-84
2021/01/23 04:06:51;;;;;;;12.43;10.80;;;8.90;96.50;;;;;;5091403;28;20530;-84
2021/01/23 04:09:17;;;;;;;13.37;10.90;;;9.00;96.50;;;;;;5091327;28;20531;-84
2021/01/23 04:11:42;;;;;;;15.33;10.73;;;8.90;96.70;;;;;;5089372;28;20221;-85
2021/01/23 04:14:08;;;;;;;14.17;9.90;;;8.80;96.90;;;;;;5091632;28;20583;-84
2021/01/23 04:16:34;;;;;;;12.50;10.07;;;8.90;96.70;;;;;;5089181;28;20176;-84
2021/01/23 04:18:59;;;;;;;11.47;9.90;;;8.90;96.70;;;;;;5091614;28;20177;-84
2021/01/23 04:21:25;;;;;;;11.43;10.40;;;9.00;96.50;;;;;;5092028;28;20165;-84
2021/01/23 04:23:51;;;;;;;10.80;9.50;;;9.10;96.20;;;;;;5090918;28;20260;-84
2021/01/23 04:26:16;;;;;;;12.87;9.87;;;9.30;95.90;;;;;;5089731;28;20183;-84
2021/01/23 04:28:42;;;;;;;16.70;10.00;;;9.30;95.90;;;;;;5089693;28;20774;-84
2021/01/23 04:31:08;;;;;;;10.90;9.27;;;9.30;95.70;;;;;;5087945;28;20754;-84
2021/01/23 04:33:34;;;;;;;13.13;10.32;;;9.20;96.20;;;;;;5089463;28;20217;-84
2021/01/23 04:36:01;;;;;;;12.82;10.45;;;9.30;95.70;;;;;;5107298;28;20179;-84
2021/01/23 04:38:28;;;;;;;17.73;9.85;;;9.50;95.30;;;;;;5107885;28;20191;-85
2021/01/23 04:40:57;;;;;;;10.73;9.35;;;9.50;95.20;;;;;;5090395;28;20207;-84
2021/01/23 04:43:24;;;;;;;12.00;10.05;;;9.30;95.90;;;;;;5090091;28;20724;-84
2021/01/23 04:45:49;;;;;;;11.55;9.15;;;9.30;95.80;;;;;;5090160;28;20736;-84
2021/01/23 04:48:16;;;;;;;13.73;9.53;;;9.40;95.60;;;;;;5090102;28;20203;-84
2021/01/23 04:50:43;;;;;;;11.40;8.45;;;9.40;95.70;;;;;;5089901;28;20169;-83
2021/01/23 04:53:09;;;;;;;15.55;10.07;;;9.20;96.00;;;;;;5090010;28;20710;-85
2021/01/23 04:55:35;;;;;;;11.77;9.90;;;9.30;95.80;;;;;;5090124;28;20265;-84
2021/01/23 04:58:00;;;;;;;9.70;8.17;;;9.30;95.70;;;;;;5090450;28;20168;-84
2021/01/23 05:00:26;;;;;;;13.80;9.43;;;9.40;95.70;;;;;;5088497;28;20216;-84
2021/01/23 05:03:00;;;;;;;13.87;9.47;;;9.30;96.00;;;;;;5090186;28;20184;-83
2021/01/23 05:05:27;;;;;;;12.10;8.18;;;9.30;95.90;;;;;;5088385;28;20189;-84
2021/01/23 05:07:52;;;;;;;9.35;8.40;;;9.30;95.90;;;;;;5089468;28;20688;-83
2021/01/23 05:10:27;;;;;;;9.20;7.87;;;9.40;95.80;;;;;;5088213;28;20302;-84
2021/01/23 05:12:55;;;;;;;8.93;7.43;;;9.30;95.90;;;;;;5088995;28;20183;-84
2021/01/23 05:15:22;;;;;;;12.30;8.63;;;9.30;96.00;;;;;;5087668;28;20188;-84
2021/01/23 05:18:00;;;;;;;14.07;7.85;;;9.50;95.30;;;;;;5088672;28;20199;-84
2021/01/23 05:20:32;;;;;;;13.57;8.77;;;9.40;95.60;;;;;;5087523;28;20220;-85
2021/01/23 05:22:59;;;;;;;10.57;8.00;;;9.40;95.70;;;;;;5088091;28;20186;-84
2021/01/23 05:25:30;;;;;;;11.82;8.48;;;9.60;95.20;;;;;;5088103;28;20207;-84
2021/01/23 05:27:57;;;;;;;12.60;7.93;;;9.50;95.30;;;;;;5089815;28;20214;-83
2021/01/23 05:30:24;;;;;;;9.23;7.75;;;9.60;95.10;;;;;;5088805;28;20238;-84
2021/01/23 05:33:08;;;;;;;12.88;9.25;;;9.50;95.20;;;;;;5088518;28;20199;-84
2021/01/23 05:35:35;;;;;;;10.32;8.02;;;9.40;95.50;;;;;;5100738;28;20192;-84
2021/01/23 05:38:26;;;;;;;10.15;7.93;;;9.50;95.20;;;;;;5109611;28;20186;-84
2021/01/23 05:41:08;;;;;;;9.82;8.75;;;9.60;95.00;;;;;;5088992;28;20204;-79
2021/01/23 05:43:47;;;;;;;7.93;7.10;;;9.60;95.00;;;;;;5087531;28;20498;-79
2021/01/23 05:46:33;;;;;;;11.50;7.28;;;9.50;95.10;;;;;;5087066;28;20681;-79
2021/01/23 05:48:59;;;;;;;11.57;7.38;;;9.60;94.80;;;;;;5084120;28;20192;-78
2021/01/23 05:51:25;;;;;;;12.07;7.77;;;9.60;94.80;;;;;;5087022;28;20691;-78
2021/01/23 05:53:51;;;;;;;13.75;8.07;;;9.70;94.70;;;;;;5085536;28;20238;-78
2021/01/23 05:56:17;;;;;;;7.30;6.60;;;9.60;94.80;;;;;;5085258;28;20232;-78
2021/01/23 05:58:44;;;;;;;10.93;8.00;;;9.60;94.80;;;;;;5086588;28;20187;-78
2021/01/23 06:01:13;;;;;;;10.73;8.82;;;9.70;94.60;;;;;;5086870;28;20566;-79
2021/01/23 06:03:42;;;;;;;10.00;7.15;;;9.60;94.80;;;;;;5086176;28;20180;-79
2021/01/23 06:06:08;;;;;;;14.40;7.25;;;9.50;95.10;;;;;;5085740;28;20172;-79
2021/01/23 06:08:47;;;;;;;9.82;8.55;;;9.70;94.50;;;;;;5086408;28;20172;-78
2021/01/23 06:11:37;;;;;;;12.35;8.25;;;9.60;94.60;;;;;;5085784;28;20212;-78
2021/01/23 06:14:02;;;;;;;10.23;8.43;;;9.60;94.80;;;;;;5082349;28;20593;-78
2021/01/23 06:16:36;;;;;;;13.97;8.83;;;9.70;94.50;;;;;;5086817;28;20176;-78
2021/01/23 06:19:25;;;;;;;10.95;9.02;;;9.60;94.60;;;;;;5086378;28;20175;-78
2021/01/23 06:21:52;;;;;;;10.35;8.02;;;9.50;94.90;;;;;;5085873;28;20213;-78
2021/01/23 06:24:41;;;;;;;11.98;8.35;;;9.60;94.80;;;;;;5084358;28;20192;-78
2021/01/23 06:27:07;;;;;;;11.77;7.10;;;9.50;94.90;;;;;;5086104;28;20194;-78
2021/01/23 06:29:42;;;;;;;11.32;8.65;;;9.50;95.20;;;;;;5085027;28;20188;-78
2021/01/23 06:32:13;;;;;;;17.50;7.43;;;9.50;95.00;;;;;;5086571;28;20534;-78
2021/01/23 06:34:45;;;;;;;7.88;7.05;;;9.50;95.10;;;;;;5090720;28;20179;-78
2021/01/23 06:37:33;;;;;;;8.63;6.70;;;9.50;95.10;;;;;;5105334;28;20222;-78
2021/01/23 06:40:14;;;;;;;10.95;6.90;;;9.40;95.30;;;;;;5106257;28;20310;-78
2021/01/23 06:42:48;;;;;;;9.05;7.45;;;9.50;95.00;;;;;;5106522;28;20238;-78
2021/01/23 06:45:18;;;;;;;7.25;6.20;;;9.50;94.90;;;;;;5106738;28;20167;-78
2021/01/23 06:47:46;;;;;;;12.95;7.25;;;9.50;94.90;;;;;;5106927;28;20160;-78
2021/01/23 06:50:13;;;;;;;9.85;7.88;;;9.50;94.80;;;;;;5106578;28;20176;-78
2021/01/23 06:52:49;;;;;;;7.55;6.68;;;9.60;94.60;;;;;;5106275;28;20178;-78
2021/01/23 06:55:16;;;;;;;11.02;8.40;;;9.50;94.70;;;;;;5106350;28;20711;-78
2021/01/23 06:57:46;;;;;;;12.52;8.38;;;9.50;94.70;;;;;;5105049;28;20192;-78
2021/01/23 07:00:13;;;;;;;8.27;6.03;;;9.60;94.40;;;;;;5106437;28;20212;-78
2021/01/23 07:02:39;;;;;;;10.20;7.28;;;9.60;94.40;;;;;;5106042;28;20685;-78
2021/01/23 07:05:09;;;;;;;11.88;7.38;;;9.50;94.60;;;;;;5105212;28;20176;-78
2021/01/23 07:07:39;;;;;;;12.75;7.13;;;9.50;94.70;;;;;;5105015;28;20276;-78
2021/01/23 07:10:14;;;;;;;9.35;8.40;;;9.60;94.20;;;;;;5105696;28;20180;-78
2021/01/23 07:12:47;;;;;;;10.68;7.72;;;9.70;94.10;;;;;;5106299;28;20184;-78
2021/01/23 07:15:14;;;;;;;11.68;7.72;;;9.50;94.30;;;;;;5105076;28;20247;-78
2021/01/23 07:17:42;;;;;;;10.27;8.35;;;9.50;94.10;;;;;;5106058;28;20696;-78
2021/01/23 07:20:13;;;;;;;9.50;7.80;;;9.50;94.20;;;;;;5105887;28;20200;-78
2021/01/23 07:22:40;;;;;;;11.80;6.85;;;9.50;94.20;;;;;;5104645;28;20713;-78
2021/01/23 07:25:08;;;;;;;9.15;7.20;;;9.50;94.50;;;;;;5105543;28;20608;-78
2021/01/23 07:27:38;;;;;;;10.90;7.78;;;9.60;94.20;;;;;;5103425;28;20202;-78
2021/01/23 07:30:17;;;;;;;12.25;8.82;;;9.70;93.90;;;;;;5106312;28;20176;-78
2021/01/23 07:32:45;;;;;;;8.85;7.95;;;9.60;93.90;;;;;;5105882;28;20183;-78
2021/01/23 07:35:12;;;;;;;12.00;6.68;;;9.70;93.90;;;;;;5105117;28;20221;-78
2021/01/23 07:37:40;;;;;;;14.32;9.80;;;9.50;94.40;;;;;;5108040;28;20190;-78
2021/01/23 07:40:08;;;;;;;11.05;9.95;;;9.50;94.20;;;;;;5090509;28;20208;-78
2021/01/23 07:42:34;;;;;;;13.52;9.45;;;9.60;94.00;;;;;;5087079;28;20687;-79
2021/01/23 07:45:05;;;;;;;11.25;7.47;;;9.60;94.00;;;;;;5089869;28;20187;-78
2021/01/23 07:47:31;;;;;;;9.73;8.73;;;9.50;94.30;;;;;;5089239;28;20172;-79
2021/01/23 07:50:23;;;;;;;8.80;7.37;;;9.60;94.10;;;;;;5087987;28;20278;-77
2021/01/23 07:52:48;;;;;;;11.35;8.02;;;9.70;93.90;;;;;;5084701;28;20180;-77
2021/01/23 07:55:14;;;;;;;10.53;6.60;;;9.70;93.80;;;;;;5088126;28;20540;-77
2021/01/23 07:57:40;;;;;;;12.53;9.77;;;9.70;94.10;;;;;;5089308;28;20228;-77
2021/01/23 08:00:20;;;;;;;15.20;12.73;;;9.70;94.00;;;;;;5088230;28;20204;-78
2021/01/23 08:02:50;;;;;;;11.00;8.05;;;9.70;94.10;;;;;;5087673;28;20267;-77
2021/01/23 08:05:16;;;;;;;18.85;12.82;;;9.60;94.20;;;;;;5089008;28;20220;-77
2021/01/23 08:07:42;;;;;;;17.47;13.90;;;9.70;94.00;;;;;;5089058;28;20192;-77
2021/01/23 08:10:16;;;;;;;22.92;19.20;;;9.90;93.50;;;;;;5089383;28;20917;-77
2021/01/23 08:12:56;;;;;;;65.32;51.13;;;9.90;93.50;;;;;;5089080;28;20190;-77
2021/01/23 08:15:29;;;;;;;23.02;16.55;;;9.90;93.60;;;;;;5086149;28;20247;-77
2021/01/23 08:17:56;;;;;;;12.40;8.68;;;9.90;93.40;;;;;;5087345;28;20669;-78
2021/01/23 08:20:35;;;;;;;27.63;20.05;;;9.90;93.70;;;;;;5086996;28;20212;-78
2021/01/23 08:23:09;;;;;;;11.73;8.10;;;10.00;93.60;;;;;;5088417;28;20531;-77
2021/01/23 08:25:55;;;;;;;15.70;12.15;;;9.90;93.50;;;;;;5088477;28;20210;-77
2021/01/23 08:28:33;;;;;;;10.52;6.75;;;10.00;93.50;;;;;;5087199;28;20187;-78
2021/01/23 08:31:11;;;;;;;10.88;8.82;;;9.90;93.60;;;;;;5088072;28;20173;-78
2021/01/23 08:33:37;;;;;;;10.18;7.22;;;10.00;93.50;;;;;;5087783;28;20193;-78
2021/01/23 08:36:03;;;;;;;9.30;8.13;;;10.00;93.50;;;;;;5104368;28;20237;-78
2021/01/23 08:38:29;;;;;;;10.88;7.50;;;10.10;93.40;;;;;;5108302;28;20654;-78
2021/01/23 08:40:55;;;;;;;10.73;9.73;;;10.10;93.30;;;;;;5108936;28;20283;-78
2021/01/23 08:43:20;;;;;;;12.83;8.40;;;10.10;93.20;;;;;;5107175;28;20615;-76
2021/01/23 08:45:46;;;;;;;15.80;8.17;;;10.30;92.60;;;;;;5107010;28;20609;-78
2021/01/23 08:48:12;;;;;;;11.17;6.90;;;10.20;92.60;;;;;;5107021;28;20251;-78
2021/01/23 08:50:37;;;;;;;15.10;8.53;;;10.30;92.50;;;;;;5107965;28;20175;-78
2021/01/23 08:53:03;;;;;;;14.17;7.90;;;10.30;92.30;;;;;;5107018;28;20688;-78
2021/01/23 08:55:29;;;;;;;11.20;7.30;;;10.40;92.30;;;;;;5107162;28;20500;-79
2021/01/23 08:57:54;;;;;;;10.57;7.90;;;10.40;92.00;;;;;;5108223;28;20524;-77
2021/01/23 09:00:20;;;;;;;8.93;8.00;;;10.40;91.90;;;;;;5107522;28;20212;-77
2021/01/23 09:02:46;;;;;;;11.00;8.03;;;10.40;91.90;;;;;;5108200;28;20187;-77
2021/01/23 09:05:12;;;;;;;13.73;9.37;;;10.40;91.70;;;;;;5107503;28;20970;-78
2021/01/23 09:07:41;;;;;;;16.58;9.57;;;10.60;91.50;;;;;;5107792;28;20298;-79
2021/01/23 09:10:09;;;;;;;13.80;9.40;;;10.50;91.50;;;;;;5108350;28;20210;-77
2021/01/23 09:12:34;;;;;;;15.18;8.88;;;10.50;91.40;;;;;;5107791;28;20300;-77
2021/01/23 09:15:00;;;;;;;10.73;8.43;;;10.60;91.50;;;;;;5108245;28;20220;-77
2021/01/23 09:17:26;;;;;;;14.07;9.10;;;10.50;91.60;;;;;;5106337;28;20188;-77
2021/01/23 09:19:52;;;;;;;10.53;8.80;;;10.60;91.40;;;;;;5108068;28;20460;-77
2021/01/23 09:22:17;;;;;;;14.20;9.77;;;10.60;91.40;;;;;;5106532;28;20650;-77
2021/01/23 09:24:43;;;;;;;9.33;8.43;;;10.60;91.30;;;;;;5107798;28;20183;-77
2021/01/23 09:27:09;;;;;;;11.17;8.10;;;10.70;91.10;;;;;;5108045;28;20220;-77
2021/01/23 09:29:34;;;;;;;12.67;8.53;;;10.70;91.20;;;;;;5107701;28;20255;-77
2021/01/23 09:32:01;;;;;;;13.50;8.93;;;10.60;91.10;;;;;;5106022;28;20188;-77
2021/01/23 09:34:27;;;;;;;12.45;7.40;;;10.70;91.00;;;;;;5105927;28;20198;-77
2021/01/23 09:36:54;;;;;;;12.68;9.00;;;10.70;90.90;;;;;;5106649;28;20243;-77
2021/01/23 09:39:19;;;;;;;12.63;9.02;;;10.70;90.80;;;;;;5105713;28;20329;-77
2021/01/23 09:41:45;;;;;;;16.00;11.33;;;10.80;90.60;;;;;;5107328;28;20244;-77
2021/01/23 09:44:11;;;;;;;12.67;9.20;;;10.80;90.80;;;;;;5108075;28;20181;-77
2021/01/23 09:46:37;;;;;;;14.20;8.97;;;11.00;90.50;;;;;;5107187;28;20168;-77
2021/01/23 09:49:03;;;;;;;14.88;9.88;;;10.90;90.60;;;;;;5106023;28;20303;-77
2021/01/23 09:51:28;;;;;;;14.50;9.13;;;10.90;90.50;;;;;;5107527;28;20183;-77
2021/01/23 09:53:54;;;;;;;13.83;8.90;;;10.90;90.30;;;;;;5105892;28;20247;-77
2021/01/23 09:56:21;;;;;;;11.90;8.30;;;11.00;90.60;;;;;;5106846;28;20239;-77
2021/01/23 09:58:47;;;;;;;12.68;8.95;;;10.90;90.40;;;;;;5107276;28;20183;-77
2021/01/23 10:01:13;;;;;;;13.50;9.27;;;11.00;90.50;;;;;;5106150;28;20671;-77
2021/01/23 10:03:38;;;;;;;11.00;9.30;;;10.90;90.60;;;;;;5107330;28;20172;-77
2021/01/23 10:06:04;;;;;;;10.97;9.43;;;10.80;90.70;;;;;;5107283;28;20217;-77
2021/01/23 10:08:30;;;;;;;14.10;12.10;;;10.90;90.40;;;;;;5105434;28;20184;-77
2021/01/23 10:10:55;;;;;;;19.13;13.23;;;11.00;89.80;;;;;;5105155;28;20567;-77
2021/01/23 10:13:21;;;;;;;15.27;11.40;;;11.10;90.00;;;;;;5107039;28;20181;-77
2021/01/23 10:15:47;;;;;;;16.13;11.40;;;11.00;90.00;;;;;;5105676;28;20513;-77
2021/01/23 10:18:12;;;;;;;13.53;11.30;;;11.10;89.80;;;;;;5106650;28;20176;-77
2021/01/23 10:20:38;;;;;;;17.17;9.57;;;11.00;89.80;;;;;;5106665;28;20218;-78
2021/01/23 10:23:04;;;;;;;14.27;10.10;;;11.20;89.40;;;;;;5106561;28;20193;-78
2021/01/23 10:25:30;;;;;;;11.33;9.13;;;11.10;89.40;;;;;;5105284;28;20443;-78
2021/01/23 10:27:56;;;;;;;11.48;8.85;;;11.10;89.80;;;;;;5105851;28;20433;-78
2021/01/23 10:30:22;;;;;;;12.40;8.43;;;11.00;89.40;;;;;;5105627;28;20188;-78
2021/01/23 10:32:48;;;;;;;13.45;8.95;;;11.10;89.10;;;;;;5106926;28;20182;-78
2021/01/23 10:35:14;;;;;;;18.40;10.30;;;11.20;89.20;;;;;;5106665;28;20183;-77
2021/01/23 10:37:40;;;;;;;14.20;9.63;;;11.20;89.10;;;;;;5106364;28;20290;-77
2021/01/23 10:40:07;;;;;;;13.57;9.07;;;11.20;89.00;;;;;;5106961;28;20233;-78
2021/01/23 10:42:32;;;;;;;14.00;9.23;;;11.20;88.10;;;;;;5103525;28;20723;-77
2021/01/23 10:44:59;;;;;;;15.30;9.53;;;11.30;88.30;;;;;;5106754;28;20214;-78
2021/01/23 10:47:25;;;;;;;13.50;9.02;;;11.30;88.70;;;;;;5106671;28;20176;-77
2021/01/23 10:49:50;;;;;;;11.23;8.93;;;11.30;88.70;;;;;;5107228;28;20179;-77
2021/01/23 10:52:16;;;;;;;10.00;8.70;;;11.30;89.20;;;;;;5106772;28;21307;-77
2021/01/23 10:54:42;;;;;;;12.63;8.90;;;11.30;88.70;;;;;;5106363;28;20655;-77
2021/01/23 10:57:07;;;;;;;10.57;9.37;;;11.30;88.70;;;;;;5106599;28;20314;-78
2021/01/23 10:59:33;;;;;;;13.33;9.40;;;11.30;88.80;;;;;;5105381;28;20246;-77
2021/01/23 11:01:59;;;;;;;11.30;9.20;;;11.30;88.60;;;;;;5105703;28;20233;-78
2021/01/23 11:04:25;;;;;;;11.47;9.00;;;11.30;88.60;;;;;;5106515;28;20422;-78
2021/01/23 11:06:51;;;;;;;12.10;9.47;;;11.40;88.70;;;;;;5105099;28;20435;-78
2021/01/23 11:09:16;;;;;;;17.23;10.20;;;11.40;88.60;;;;;;5106455;28;20412;-78
2021/01/23 11:11:42;;;;;;;17.93;13.00;;;11.30;89.20;;;;;;5106800;28;20176;-78
2021/01/23 11:14:08;;;;;;;13.43;9.87;;;11.30;89.00;;;;;;5110339;28;20562;-78
2021/01/23 11:16:33;;;;;;;22.37;16.03;;;11.30;89.10;;;;;;5109098;28;20180;-78
2021/01/23 11:18:59;;;;;;;12.10;8.93;;;11.40;89.50;;;;;;5109695;28;20184;-78
2021/01/23 11:21:26;;;;;;;18.93;11.33;;;11.40;89.00;;;;;;5110429;28;20553;-78
2021/01/23 11:23:52;;;;;;;14.98;10.00;;;11.40;88.60;;;;;;5109012;28;20426;-78
2021/01/23 11:26:17;;;;;;;15.30;9.83;;;11.50;88.80;;;;;;5109773;28;20172;-78
2021/01/23 11:28:43;;;;;;;20.53;13.50;;;11.50;88.50;;;;;;5109840;28;20455;-78
2021/01/23 11:31:09;;;;;;;16.23;13.60;;;11.50;88.30;;;;;;5108326;28;20188;-77
2021/01/23 11:33:35;;;;;;;13.57;10.63;;;11.50;88.60;;;;;;5109416;27;20669;-77
2021/01/23 11:36:02;;;;;;;19.40;13.35;;;11.60;88.50;;;;;;5108359;28;20488;-78
2021/01/23 11:38:28;;;;;;;9.77;8.23;;;11.50;88.70;;;;;;5110106;27;20557;-77
2021/01/23 11:40:53;;;;;;;9.70;8.70;;;11.40;89.10;;;;;;5109579;28;20679;-78
2021/01/23 11:43:19;;;;;;;10.83;9.37;;;11.40;89.30;;;;;;5109463;28;20577;-77
2021/01/23 11:45:45;;;;;;;11.27;9.60;;;11.40;89.10;;;;;;5108665;28;20199;-78
2021/01/23 11:48:11;;;;;;;12.43;9.70;;;11.50;89.00;;;;;;5108424;28;20206;-78
2021/01/23 11:50:38;;;;;;;17.50;9.83;;;11.30;89.50;;;;;;5109914;28;20285;-77
2021/01/23 11:53:04;;;;;;;13.52;9.43;;;11.20;90.00;;;;;;5108248;28;20195;-78
2021/01/23 11:55:31;;;;;;;14.70;10.25;;;11.20;90.00;;;;;;5108993;28;20179;-78
2021/01/23 11:57:57;;;;;;;13.00;11.20;;;11.10;90.10;;;;;;5109471;28;20199;-78
2021/01/23 12:00:23;;;;;;;11.10;9.90;;;11.10;90.20;;;;;;5109386;28;20211;-78
2021/01/23 12:02:48;;;;;;;33.65;24.25;;;11.00;90.40;;;;;;5109168;28;20207;-77
2021/01/23 12:05:19;;;;;;;23.20;19.80;;;11.10;90.60;;;;;;5108459;28;20211;-78
2021/01/23 12:07:45;;;;;;;19.17;14.48;;;11.00;90.60;;;;;;5108975;28;20152;-78
2021/01/23 12:10:12;;;;;;;13.10;11.60;;;11.00;90.60;;;;;;5109710;28;20232;-78
2021/01/23 12:12:37;;;;;;;11.88;9.55;;;11.00;90.60;;;;;;5107744;28;20967;-78
2021/01/23 12:15:04;;;;;;;13.10;8.90;;;11.10;90.60;;;;;;5109226;28;20184;-77
2021/01/23 12:17:29;;;;;;;15.80;9.85;;;11.10;90.60;;;;;;5109463;28;20595;-77
2021/01/23 12:19:55;;;;;;;13.03;9.83;;;11.00;90.80;;;;;;5109036;28;20283;-78
2021/01/23 12:22:21;;;;;;;17.60;9.93;;;11.00;90.80;;;;;;5107648;28;20540;-78
2021/01/23 12:24:46;;;;;;;16.73;9.07;;;11.00;90.50;;;;;;5108246;28;20262;-78
2021/01/23 12:27:12;;;;;;;17.50;9.97;;;11.10;90.30;;;;;;5109146;27;20172;-77
2021/01/23 12:29:38;;;;;;;12.87;10.43;;;11.10;90.50;;;;;;5108858;28;20535;-77
2021/01/23 12:32:06;;;;;;;15.87;11.27;;;11.30;90.20;;;;;;5108508;28;20684;-78
2021/01/23 12:34:32;;;;;;;22.75;11.40;;;11.30;90.00;;;;;;5108679;28;20493;-78
2021/01/23 12:36:58;;;;;;;14.63;11.60;;;11.30;90.00;;;;;;5106477;28;20189;-78
2021/01/23 12:39:23;;;;;;;17.13;11.30;;;11.30;90.00;;;;;;5108902;28;20184;-78
2021/01/23 12:41:50;;;;;;;16.73;10.73;;;11.20;90.20;;;;;;5108421;28;20657;-78
2021/01/23 12:44:16;;;;;;;11.15;10.00;;;11.20;90.20;;;;;;5108486;27;20624;-78
2021/01/23 12:46:42;;;;;;;15.35;9.93;;;11.20;90.10;;;;;;5108402;28;20632;-78